Terminal Aerodrome Forecast
Issued by NWS Shreveport, LA

Home | Current Version | Previous Version | Text Only | Print | Product List | Glossary On
Versions: 1 2 3 4 5 6 7 8 9 10 11 12 13 14 15 16 17 18 19 20
000
FTUS44 KSHV 060544
TAFGGG
TAF
KGGG 060544Z 0606/0706 30004KT 5SM -RA BR OVC004
     FM060800 26004KT 3SM BR OVC004
     FM061200 VRB04KT P6SM OVC009
     FM061600 01006KT P6SM BKN015
     FM070000 03004KT P6SM BKN010=

USA.gov is the U.S. government's official web portal to all federal, state and local government web resources and services.